createdAt,value
2023-10-29T00:00:26.454Z,2.65
2023-10-29T00:02:54.446Z,2.38
2023-10-29T00:05:22.442Z,2.58
2023-10-29T00:07:50.318Z,1.88
2023-10-29T00:10:18.447Z,2.22
2023-10-29T00:12:46.828Z,2.20
2023-10-29T00:15:14.799Z,2.38
2023-10-29T00:17:44.110Z,1.92
2023-10-29T00:20:12.429Z,2.20
2023-10-29T00:22:39.348Z,1.90
2023-10-29T00:25:07.479Z,1.95
2023-10-29T00:27:35.727Z,1.98
2023-10-29T00:30:04.130Z,1.92
2023-10-29T00:32:32.173Z,2.25
2023-10-29T00:35:01.631Z,2.00
2023-10-29T00:37:32.730Z,1.90
2023-10-29T00:40:00.909Z,1.55
2023-10-29T00:42:28.848Z,2.10
2023-10-29T00:44:56.986Z,1.83
2023-10-29T00:47:25.211Z,2.10
2023-10-29T00:49:54.506Z,1.90
2023-10-29T00:52:24.150Z,2.00
2023-10-29T00:54:52.225Z,1.83
2023-10-29T00:57:20.213Z,1.75
2023-10-29T00:59:48.975Z,1.90
2023-10-29T01:02:17.103Z,2.03
2023-10-29T01:04:46.480Z,2.10
2023-10-29T01:07:14.683Z,1.92
2023-10-29T01:09:45.476Z,1.70
2023-10-29T01:12:17.398Z,1.70
2023-10-29T01:14:46.364Z,1.75
2023-10-29T01:17:14.568Z,1.92
2023-10-29T01:19:42.533Z,1.63
2023-10-29T01:22:11.145Z,1.77
2023-10-29T01:24:41.901Z,1.67
2023-10-29T01:27:11.417Z,1.75
2023-10-29T01:29:39.514Z,1.63
2023-10-29T01:32:10.266Z,1.60
2023-10-29T01:34:38.333Z,1.52
2023-10-29T01:37:06.514Z,1.60
2023-10-29T01:39:34.516Z,1.52
2023-10-29T01:42:02.597Z,1.60
2023-10-29T01:44:32.061Z,1.42
2023-10-29T01:47:00.031Z,1.70
2023-10-29T01:49:27.987Z,1.55
2023-10-29T01:51:56.143Z,1.38
2023-10-29T01:54:24.365Z,1.50
2023-10-29T01:56:52.725Z,1.45
2023-10-29T01:59:20.736Z,1.45
2023-10-29T02:01:51.924Z,1.45
2023-10-29T02:04:21.550Z,1.77
2023-10-29T02:06:52.182Z,1.35
2023-10-29T02:09:21.249Z,1.23
2023-10-29T02:11:49.262Z,1.45
2023-10-29T02:14:17.285Z,1.60
2023-10-29T02:16:45.370Z,1.30
2023-10-29T02:19:14.636Z,1.70
2023-10-29T02:21:42.619Z,1.40
2023-10-29T02:24:12.320Z,1.25
2023-10-29T02:26:40.364Z,1.55
2023-10-29T02:29:08.298Z,1.48
2023-10-29T02:31:36.270Z,1.65
2023-10-29T02:34:04.374Z,1.50
2023-10-29T02:36:32.419Z,1.15
2023-10-29T02:39:00.437Z,1.30
2023-10-29T02:41:29.930Z,1.30
2023-10-29T02:43:59.491Z,1.70
2023-10-29T02:46:27.779Z,1.50
2023-10-29T02:48:55.807Z,0.90
2023-10-29T02:51:23.750Z,1.35
2023-10-29T02:53:51.805Z,1.52
2023-10-29T02:56:19.836Z,1.27
2023-10-29T02:58:49.159Z,1.20
2023-10-29T03:01:17.448Z,1.45
2023-10-29T03:03:48.561Z,0.95
2023-10-29T03:06:16.660Z,1.40
2023-10-29T03:08:44.701Z,1.13
2023-10-29T03:11:12.945Z,0.63
2023-10-29T03:13:41.043Z,1.20
2023-10-29T03:16:10.681Z,0.93
2023-10-29T03:18:38.720Z,1.17
2023-10-29T03:21:06.782Z,0.98
2023-10-29T03:23:34.769Z,0.82
2023-10-29T03:26:04.166Z,1.23
2023-10-29T03:28:32.149Z,0.80
2023-10-29T03:31:00.137Z,1.00
2023-10-29T03:33:29.867Z,0.90
2023-10-29T03:35:57.986Z,0.95
2023-10-29T03:38:26.075Z,1.48
2023-10-29T03:40:54.056Z,0.95
2023-10-29T03:43:22.104Z,1.13
2023-10-29T03:45:50.165Z,1.13
2023-10-29T03:48:18.402Z,1.15
2023-10-29T03:50:47.769Z,1.02
2023-10-29T03:53:15.758Z,1.23
2023-10-29T03:55:43.878Z,1.38
2023-10-29T03:58:11.934Z,0.98
2023-10-29T04:00:39.889Z,1.00
2023-10-29T04:03:11.029Z,1.00
2023-10-29T04:05:39.382Z,1.10
2023-10-29T04:08:11.565Z,0.98
2023-10-29T04:10:39.647Z,1.13
2023-10-29T04:13:07.778Z,1.10
2023-10-29T04:15:35.850Z,1.33
2023-10-29T04:18:03.978Z,1.00
2023-10-29T04:20:32.447Z,1.00
2023-10-29T04:23:03.184Z,1.10
2023-10-29T04:25:32.508Z,0.98
2023-10-29T04:28:00.563Z,1.20
2023-10-29T04:30:31.428Z,1.00
2023-10-29T04:32:59.882Z,1.10
2023-10-29T04:35:28.029Z,1.08
2023-10-29T04:37:56.068Z,1.15
2023-10-29T04:40:24.330Z,0.88
2023-10-29T04:42:53.845Z,0.98
2023-10-29T04:45:21.884Z,1.00
2023-10-29T04:47:49.995Z,1.00
2023-10-29T04:50:18.171Z,0.98
2023-10-29T04:52:46.192Z,1.15
2023-10-29T04:55:14.212Z,1.15
2023-10-29T04:57:42.199Z,0.70
2023-10-29T05:00:13.095Z,1.27
2023-10-29T05:02:42.003Z,0.90
2023-10-29T05:05:12.003Z,1.10
2023-10-29T05:07:40.226Z,0.90
2023-10-29T05:10:09.224Z,0.90
2023-10-29T05:12:37.252Z,1.05
2023-10-29T05:15:05.951Z,0.70
2023-10-29T05:17:36.124Z,1.00
2023-10-29T05:20:05.035Z,1.10
2023-10-29T05:22:33.160Z,1.13
2023-10-29T05:25:01.733Z,0.90
2023-10-29T05:27:29.791Z,0.80
2023-10-29T05:29:57.849Z,0.90
2023-10-29T05:32:25.866Z,0.80
2023-10-29T05:34:58.388Z,1.25
2023-10-29T05:37:26.615Z,0.93
2023-10-29T05:39:54.635Z,0.75
2023-10-29T05:42:22.610Z,0.68
2023-10-29T05:44:50.911Z,1.08
2023-10-29T05:47:19.146Z,1.00
2023-10-29T05:49:47.176Z,0.93
2023-10-29T05:52:16.632Z,0.90
2023-10-29T05:54:44.608Z,0.93
2023-10-29T05:57:13.023Z,0.93
2023-10-29T05:59:41.075Z,0.90
2023-10-29T06:02:09.687Z,0.80
2023-10-29T06:04:37.820Z,0.82
2023-10-29T06:07:05.935Z,0.95
2023-10-29T06:09:35.318Z,0.82
2023-10-29T06:12:03.603Z,1.17
2023-10-29T06:14:32.041Z,0.60
2023-10-29T06:17:11.911Z,0.70
2023-10-29T06:19:43.789Z,0.70
2023-10-29T06:22:12.225Z,0.80
2023-10-29T06:24:43.602Z,0.70
2023-10-29T06:27:11.663Z,0.77
2023-10-29T06:29:40.190Z,0.98
2023-10-29T06:32:08.844Z,0.80
2023-10-29T06:34:36.887Z,0.60
2023-10-29T06:37:04.883Z,0.80
2023-10-29T06:39:35.342Z,0.65
2023-10-29T06:42:05.193Z,0.80
2023-10-29T06:44:33.231Z,1.23
2023-10-29T06:47:01.528Z,0.60
2023-10-29T06:49:29.917Z,1.00
2023-10-29T06:51:58.242Z,0.93
2023-10-29T06:54:26.384Z,0.90
2023-10-29T06:56:54.544Z,0.70
2023-10-29T06:59:34.585Z,0.60
2023-10-29T07:02:02.839Z,0.80
2023-10-29T07:04:31.095Z,0.60
2023-10-29T07:07:02.291Z,0.80
2023-10-29T07:09:33.711Z,0.70
2023-10-29T07:12:01.706Z,0.80
2023-10-29T07:14:29.728Z,0.75
2023-10-29T07:16:59.114Z,0.98
2023-10-29T07:19:29.558Z,0.88
2023-10-29T07:21:57.552Z,0.70
2023-10-29T07:24:28.462Z,0.80
2023-10-29T07:26:56.486Z,0.98
2023-10-29T07:29:24.545Z,0.90
2023-10-29T07:31:52.446Z,0.75
2023-10-29T07:34:24.802Z,0.95
2023-10-29T07:36:53.029Z,0.95
2023-10-29T07:39:21.044Z,0.70
2023-10-29T07:41:49.076Z,0.73
2023-10-29T07:44:17.121Z,1.30
2023-10-29T07:46:45.109Z,0.70
2023-10-29T07:49:13.165Z,1.08
2023-10-29T07:51:42.592Z,1.00
2023-10-29T07:54:10.612Z,0.80
2023-10-29T07:56:38.750Z,1.05
2023-10-29T07:59:09.953Z,0.80
2023-10-29T08:01:38.151Z,0.70
2023-10-29T08:04:06.663Z,1.15
2023-10-29T08:06:34.811Z,1.10
2023-10-29T08:09:04.267Z,1.05
2023-10-29T08:11:32.250Z,0.90
2023-10-29T08:14:00.293Z,0.98
2023-10-29T08:16:28.412Z,1.45
2023-10-29T08:18:56.578Z,1.15
2023-10-29T08:21:24.492Z,1.13
2023-10-29T08:23:52.473Z,1.40
2023-10-29T08:26:21.982Z,0.82
2023-10-29T08:28:49.956Z,0.60
2023-10-29T08:31:21.001Z,1.33
2023-10-29T08:33:50.097Z,1.45
2023-10-29T08:36:18.557Z,1.40
2023-10-29T08:38:52.674Z,1.02
2023-10-29T08:41:22.106Z,1.70
2023-10-29T08:43:50.132Z,1.30
2023-10-29T08:46:18.234Z,1.33
2023-10-29T08:48:46.277Z,1.70
2023-10-29T08:51:15.795Z,1.20
2023-10-29T08:53:43.834Z,1.38
2023-10-29T08:56:11.850Z,1.45
2023-10-29T08:58:41.262Z,1.20
2023-10-29T09:01:11.206Z,1.63
2023-10-29T09:03:39.471Z,1.35
2023-10-29T09:06:08.663Z,1.90
2023-10-29T09:08:37.920Z,1.45
2023-10-29T09:11:05.965Z,1.63
2023-10-29T09:13:35.699Z,1.85
2023-10-29T09:16:05.674Z,1.48
2023-10-29T09:18:33.762Z,1.02
2023-10-29T09:21:01.709Z,1.50
2023-10-29T09:23:30.515Z,1.30
2023-10-29T09:25:59.350Z,1.52
2023-10-29T09:28:28.017Z,1.38
2023-10-29T09:30:56.287Z,1.40
2023-10-29T09:33:25.769Z,1.30
2023-10-29T09:35:53.828Z,1.27
2023-10-29T09:38:22.564Z,1.27
2023-10-29T09:40:56.697Z,1.30
2023-10-29T09:43:28.329Z,1.58
2023-10-29T09:45:58.510Z,1.60
2023-10-29T09:48:28.089Z,1.40
2023-10-29T09:50:56.435Z,1.10
2023-10-29T09:53:26.020Z,1.35
2023-10-29T09:55:56.445Z,1.50
2023-10-29T09:58:28.242Z,1.45
2023-10-29T10:00:59.312Z,1.27
2023-10-29T10:03:29.223Z,0.80
2023-10-29T10:05:58.935Z,1.27
2023-10-29T10:08:27.857Z,1.25
2023-10-29T10:10:56.332Z,1.25
2023-10-29T10:13:38.451Z,1.15
2023-10-29T10:16:11.467Z,1.25
2023-10-29T10:18:54.493Z,1.02
2023-10-29T10:21:26.751Z,1.50
2023-10-29T10:23:56.827Z,1.17
2023-10-29T10:26:32.781Z,1.55
2023-10-29T10:29:05.407Z,1.35
2023-10-29T10:31:35.047Z,1.15
2023-10-29T10:34:17.173Z,1.77
2023-10-29T10:36:46.152Z,1.27
2023-10-29T10:39:14.815Z,1.02
2023-10-29T10:41:44.827Z,1.48
2023-10-29T10:44:13.844Z,1.23
2023-10-29T10:46:48.939Z,0.93
2023-10-29T10:49:19.159Z,1.33
2023-10-29T10:51:53.790Z,1.60
2023-10-29T10:54:22.046Z,1.30
2023-10-29T10:56:51.507Z,1.40
2023-10-29T10:59:20.647Z,1.10
2023-10-29T11:01:50.380Z,1.35
2023-10-29T11:04:20.699Z,1.55
2023-10-29T11:06:49.725Z,1.80
2023-10-29T11:09:22.859Z,1.30
2023-10-29T11:11:54.483Z,1.30
2023-10-29T11:14:23.729Z,1.40
2023-10-29T11:16:54.954Z,1.30
2023-10-29T11:19:48.303Z,1.80
2023-10-29T11:22:18.218Z,1.25
2023-10-29T11:25:10.084Z,1.42
2023-10-29T11:27:39.732Z,1.58
2023-10-29T11:30:15.578Z,1.20
2023-10-29T11:32:44.397Z,1.42
2023-10-29T11:35:21.722Z,1.52
2023-10-29T11:37:50.884Z,1.50
2023-10-29T11:40:35.285Z,1.77
2023-10-29T11:43:20.211Z,1.40
2023-10-29T11:45:56.007Z,1.00
2023-10-29T11:48:24.049Z,2.22
2023-10-29T11:51:21.790Z,1.33
2023-10-29T11:53:49.950Z,1.48
2023-10-29T11:56:20.152Z,1.60
2023-10-29T11:58:48.100Z,1.33
2023-10-29T12:01:22.147Z,1.42
2023-10-29T12:03:54.198Z,1.52
2023-10-29T12:09:19.338Z,1.38
2023-10-29T12:11:47.560Z,1.27
2023-10-29T12:14:15.597Z,1.45
2023-10-29T12:16:44.008Z,1.30
2023-10-29T12:19:12.058Z,1.30
2023-10-29T12:21:53.830Z,1.65
2023-10-29T12:24:21.943Z,1.73
2023-10-29T12:26:50.041Z,1.77
2023-10-29T12:29:18.192Z,2.45
2023-10-29T12:31:48.604Z,2.83
2023-10-29T12:34:16.702Z,2.33
2023-10-29T12:36:52.678Z,2.40
2023-10-29T12:39:23.190Z,2.42
2023-10-29T12:41:54.812Z,2.42
2023-10-29T12:44:23.499Z,2.13
2023-10-29T12:46:51.574Z,1.98
2023-10-29T12:49:26.931Z,2.03
2023-10-29T12:51:55.897Z,2.20
2023-10-29T12:54:28.547Z,2.65
2023-10-29T12:56:59.130Z,2.28
2023-10-29T12:59:32.581Z,1.70
2023-10-29T13:02:02.237Z,1.90
2023-10-29T13:04:34.470Z,1.90
2023-10-29T13:07:08.968Z,1.88
2023-10-29T13:09:38.734Z,2.60
2023-10-29T13:12:09.113Z,3.03
2023-10-29T13:14:37.910Z,3.17
2023-10-29T13:17:09.419Z,5.43
2023-10-29T13:19:37.663Z,6.63
2023-10-29T13:22:06.652Z,7.30
2023-10-29T13:24:35.183Z,8.85
2023-10-29T13:27:04.886Z,9.63
2023-10-29T13:29:35.050Z,9.45
2023-10-29T13:32:03.023Z,5.38
2023-10-29T13:34:32.271Z,8.75
2023-10-29T13:37:00.731Z,8.02
2023-10-29T13:39:29.058Z,8.15
2023-10-29T13:41:57.939Z,7.30
2023-10-29T13:44:28.476Z,7.15
2023-10-29T13:46:58.136Z,7.78
2023-10-29T13:49:26.186Z,7.28
2023-10-29T13:51:57.663Z,6.82
2023-10-29T13:54:25.710Z,6.38
2023-10-29T13:56:55.690Z,6.18
2023-10-29T13:59:29.463Z,5.10
2023-10-29T14:01:58.064Z,6.38
2023-10-29T14:04:26.113Z,5.68
2023-10-29T14:06:54.141Z,5.28
2023-10-29T14:09:25.963Z,6.25
2023-10-29T14:11:54.187Z,5.57
2023-10-29T14:14:25.019Z,4.80
2023-10-29T14:16:54.628Z,5.38
2023-10-29T14:19:24.484Z,5.18
2023-10-29T14:21:54.178Z,5.00
2023-10-29T14:24:22.339Z,4.75
2023-10-29T14:26:52.199Z,4.32
2023-10-29T14:29:20.230Z,5.15
2023-10-29T14:31:48.315Z,4.18
2023-10-29T14:34:19.169Z,4.25
2023-10-29T14:36:47.303Z,3.97
2023-10-29T14:39:15.500Z,3.85
2023-10-29T14:41:43.732Z,4.40
2023-10-29T14:44:15.789Z,4.40
2023-10-29T14:46:43.899Z,3.92
2023-10-29T14:49:11.987Z,3.83
2023-10-29T14:51:41.504Z,5.05
2023-10-29T14:54:13.493Z,4.00
2023-10-29T14:56:41.615Z,3.92
2023-10-29T14:59:16.689Z,3.88
2023-10-29T15:01:44.798Z,3.42
2023-10-29T15:04:12.854Z,3.72
2023-10-29T15:06:42.673Z,4.20
2023-10-29T15:09:10.871Z,3.50
2023-10-29T15:11:38.962Z,3.75
2023-10-29T15:14:07.219Z,3.10
2023-10-29T15:16:38.205Z,3.70
2023-10-29T15:19:06.947Z,3.63
2023-10-29T15:21:35.280Z,3.30
2023-10-29T15:24:05.267Z,3.35
2023-10-29T15:26:33.649Z,3.75
2023-10-29T15:29:02.563Z,3.88
2023-10-29T15:31:30.777Z,3.88
2023-10-29T15:33:58.931Z,3.50
2023-10-29T15:36:30.246Z,3.40
2023-10-29T15:38:58.582Z,3.58
2023-10-29T15:41:28.095Z,3.25
2023-10-29T15:43:57.072Z,2.85
2023-10-29T15:46:25.085Z,3.00
2023-10-29T15:48:53.318Z,2.75
2023-10-29T15:51:25.618Z,3.67
2023-10-29T15:53:54.700Z,3.22
2023-10-29T15:56:23.232Z,3.17
2023-10-29T15:58:54.727Z,3.08
2023-10-29T16:01:22.832Z,3.15
2023-10-29T16:03:50.887Z,2.60
2023-10-29T16:06:19.046Z,3.35
2023-10-29T16:08:47.162Z,3.20
2023-10-29T16:11:23.543Z,2.90
2023-10-29T16:13:53.123Z,2.80
2023-10-29T16:16:21.196Z,2.55
2023-10-29T16:18:49.301Z,2.58
2023-10-29T16:21:17.316Z,2.45
2023-10-29T16:23:45.351Z,2.75
2023-10-29T16:26:14.603Z,2.58
2023-10-29T16:29:07.192Z,2.60
2023-10-29T16:34:23.593Z,2.80
2023-10-29T16:36:52.812Z,2.65
2023-10-29T16:39:20.896Z,2.53
2023-10-29T16:41:48.954Z,2.63
2023-10-29T16:44:18.338Z,2.42
2023-10-29T16:46:46.372Z,2.00
2023-10-29T16:49:14.368Z,2.30
2023-10-29T16:51:42.417Z,2.50
2023-10-29T16:54:10.604Z,2.40
2023-10-29T16:56:39.870Z,2.47
2023-10-29T16:59:11.114Z,2.20
2023-10-29T17:01:40.580Z,2.22
2023-10-29T17:04:08.889Z,2.15
2023-10-29T17:06:39.216Z,2.28
2023-10-29T17:09:07.525Z,2.30
2023-10-29T17:11:35.591Z,2.00
2023-10-29T17:14:04.815Z,2.08
2023-10-29T17:16:33.119Z,2.40
2023-10-29T17:19:02.564Z,2.10
2023-10-29T17:21:30.733Z,1.90
2023-10-29T17:23:58.925Z,1.90
2023-10-29T17:26:27.123Z,2.10
2023-10-29T17:28:56.263Z,2.25
2023-10-29T17:31:24.301Z,2.42
2023-10-29T17:33:52.324Z,2.47
2023-10-29T17:36:21.745Z,2.20
2023-10-29T17:38:49.770Z,2.15
2023-10-29T17:41:19.279Z,2.25
2023-10-29T17:43:48.054Z,1.95
2023-10-29T17:46:18.751Z,1.95
2023-10-29T17:48:47.610Z,1.80
2023-10-29T17:51:18.484Z,1.83
2023-10-29T17:53:50.037Z,2.00
2023-10-29T17:56:18.818Z,2.20
2023-10-29T17:58:48.900Z,1.77
2023-10-29T18:01:17.006Z,2.13
2023-10-29T18:03:47.954Z,1.95
2023-10-29T18:06:23.315Z,1.67
2023-10-29T18:08:53.235Z,2.10
2023-10-29T18:11:22.524Z,1.90
2023-10-29T18:13:50.589Z,2.00
2023-10-29T18:16:19.110Z,2.72
2023-10-29T18:18:52.588Z,1.88
2023-10-29T18:21:20.621Z,2.10
2023-10-29T18:23:48.724Z,1.85
2023-10-29T18:26:18.202Z,1.90
2023-10-29T18:28:46.155Z,2.10
2023-10-29T18:31:14.948Z,1.60
2023-10-29T18:33:43.137Z,1.73
2023-10-29T18:36:12.284Z,2.58
2023-10-29T18:38:40.254Z,1.83
2023-10-29T18:41:14.755Z,2.17
2023-10-29T18:43:44.044Z,1.60
2023-10-29T18:46:12.354Z,1.90
2023-10-29T18:48:40.426Z,2.13
2023-10-29T18:51:08.415Z,1.80
2023-10-29T18:53:36.553Z,1.92
2023-10-29T18:56:05.459Z,1.58
2023-10-29T18:58:33.421Z,1.52
2023-10-29T19:01:10.942Z,1.98
2023-10-29T19:03:39.453Z,1.67
2023-10-29T19:06:11.113Z,2.00
2023-10-29T19:08:39.203Z,1.77
2023-10-29T19:11:07.288Z,1.85
2023-10-29T19:13:35.565Z,2.00
2023-10-29T19:16:08.817Z,1.90
2023-10-29T19:18:37.127Z,1.95
2023-10-29T19:21:05.920Z,1.63
2023-10-29T19:23:34.994Z,2.08
2023-10-29T19:26:04.088Z,1.52
2023-10-29T19:28:32.312Z,1.70
2023-10-29T19:31:21.445Z,1.80
2023-10-29T19:33:49.621Z,1.52
2023-10-29T19:36:20.665Z,1.95
2023-10-29T19:38:48.835Z,1.70
2023-10-29T19:41:16.995Z,2.03
2023-10-29T19:43:45.624Z,1.95
2023-10-29T19:46:13.831Z,1.48
2023-10-29T19:48:45.188Z,1.70
2023-10-29T19:51:14.842Z,1.70
2023-10-29T19:53:42.819Z,1.42
2023-10-29T19:56:13.606Z,1.92
2023-10-29T19:58:41.696Z,1.63
2023-10-29T20:01:11.103Z,1.42
2023-10-29T20:03:40.397Z,2.00
2023-10-29T20:06:09.814Z,2.10
2023-10-29T20:08:40.397Z,1.65
2023-10-29T20:11:09.666Z,1.60
2023-10-29T20:13:38.427Z,1.58
2023-10-29T20:16:08.068Z,1.75
2023-10-29T20:18:37.518Z,1.73
2023-10-29T20:21:07.511Z,1.50
2023-10-29T20:23:36.730Z,1.88
2023-10-29T20:26:18.934Z,1.48
2023-10-29T20:31:24.729Z,1.80
2023-10-29T20:34:03.189Z,1.80
2023-10-29T20:36:32.484Z,1.90
2023-10-29T20:39:00.519Z,1.90
2023-10-29T20:41:29.935Z,1.60
2023-10-29T20:43:57.829Z,1.67
2023-10-29T20:46:27.019Z,1.40
2023-10-29T20:48:55.148Z,1.70
2023-10-29T20:51:23.191Z,1.70
2023-10-29T20:53:51.599Z,1.73
2023-10-29T20:56:20.294Z,1.65
2023-10-29T20:58:49.785Z,1.80
2023-10-29T21:01:20.644Z,1.60
2023-10-29T21:03:48.713Z,1.88
2023-10-29T21:06:16.895Z,1.92
2023-10-29T21:08:45.074Z,2.47
2023-10-29T21:11:16.972Z,2.95
2023-10-29T21:13:49.083Z,2.13
2023-10-29T21:16:21.550Z,2.10
2023-10-29T21:18:49.971Z,2.15
2023-10-29T21:21:18.109Z,2.00
2023-10-29T21:23:46.086Z,1.85
2023-10-29T21:26:16.521Z,2.30
2023-10-29T21:28:44.816Z,2.35
2023-10-29T21:31:17.835Z,2.20
2023-10-29T21:33:46.695Z,2.50
2023-10-29T21:36:16.246Z,2.17
2023-10-29T21:38:46.679Z,2.10
2023-10-29T21:41:15.659Z,2.03
2023-10-29T21:43:44.307Z,2.30
2023-10-29T21:46:12.417Z,1.77
2023-10-29T21:48:41.763Z,2.00
2023-10-29T21:51:09.777Z,1.92
2023-10-29T21:53:37.754Z,1.92
2023-10-29T21:56:07.079Z,1.90
2023-10-29T21:58:35.904Z,2.22
2023-10-29T22:01:04.358Z,2.00
2023-10-29T22:03:34.426Z,1.83
2023-10-29T22:06:07.258Z,1.98
2023-10-29T22:08:35.661Z,1.77
2023-10-29T22:11:04.902Z,1.70
2023-10-29T22:13:38.563Z,1.75
2023-10-29T22:16:11.920Z,2.00
2023-10-29T22:18:43.681Z,2.13
2023-10-29T22:21:14.204Z,2.00
2023-10-29T22:23:43.054Z,2.00
2023-10-29T22:26:11.222Z,1.77
2023-10-29T22:28:39.681Z,1.80
2023-10-29T22:31:07.999Z,2.17
2023-10-29T22:33:36.780Z,1.90
2023-10-29T22:36:07.523Z,1.80
2023-10-29T22:38:37.162Z,1.92
2023-10-29T22:41:07.082Z,1.50
2023-10-29T22:43:36.169Z,1.90
2023-10-29T22:46:04.915Z,1.65
2023-10-29T22:48:34.047Z,1.63
2023-10-29T22:51:05.439Z,1.80
2023-10-29T22:53:33.508Z,2.10
2023-10-29T22:56:03.053Z,2.03
2023-10-29T22:58:31.327Z,1.80
2023-10-29T23:00:59.710Z,1.65
2023-10-29T23:03:28.396Z,1.90
2023-10-29T23:05:56.440Z,1.80
2023-10-29T23:08:24.466Z,1.77
2023-10-29T23:10:52.866Z,1.88
2023-10-29T23:13:22.965Z,1.90
2023-10-29T23:15:52.549Z,2.38
2023-10-29T23:20:51.525Z,5.38
2023-10-29T23:23:19.494Z,5.88
2023-10-29T23:25:47.899Z,5.80
2023-10-29T23:28:34.214Z,5.20
2023-10-29T23:31:10.574Z,4.97
2023-10-29T23:33:39.226Z,4.78
2023-10-29T23:36:08.159Z,5.70
2023-10-29T23:38:36.205Z,5.28
2023-10-29T23:41:04.723Z,4.68
2023-10-29T23:43:32.760Z,5.03
2023-10-29T23:46:00.858Z,5.20
2023-10-29T23:48:30.744Z,4.70
2023-10-29T23:50:58.918Z,4.85
2023-10-29T23:53:26.822Z,4.20
2023-10-29T23:55:56.006Z,4.65
2023-10-29T23:58:24.109Z,4.00
